• Join FlightAware (Why Join?)
  • Login
  • US Flag 
12:56PM EDT


 

Airport Tracker/Info


-or-


 

Live Flight TrackerFlight Track Log ✈ N682RW ✈ 15-Jan-2014 ✈ KDTW - KLGA

Flight Track Log - Related Links

Times and Time Zones

All times are in EST time to prevent confusion due to time zone crossing. See the N682RW flight status page for this flight to view local times or setup timezone preferences in your user account.

Time Position Orientation Groundspeed Altitude Reporting Facility
EST Latitude Longitude Course Direction KTS MPH feet Rate Location/Type
01:41PM 42.2028 -83.3553 179° South 175 201 1,300  Level Cleveland Center
01:42PM 42.1525 -83.3539 179° South 251 289 3,300 2,220 Climbing Cleveland Center
01:42PM 42.1525 -83.3547 270° West 224 258 3,500 3,780 Climbing Cleveland Center
01:43PM 42.0786 -83.2992 151° Southeast 273 314 7,800 3,120 Climbing Cleveland Center
01:44PM 42.0858 -83.1953 85° East 319 367 10,000 2,340 Climbing Cleveland Center
01:46PM 42.1097 -83.0628 76° East 364 419 12,600 2,220 Climbing Cleveland Center
01:47PM 42.1419 -82.8983 75° East 382 440 14,600 2,520 Climbing Cleveland Center
01:48PM 42.1706 -82.7508 75° East 404 465 17,800 2,700 Climbing Cleveland Center
01:49PM 42.1969 -82.5950 77° East 423 487 20,200 2,040 Climbing Cleveland Center
01:50PM 42.1717 -82.4356 102° East 443 510 22,100 1,800 Climbing Cleveland Center
01:51PM 42.1342 -82.2714 107° East 454 522 23,900 1,920 Climbing Cleveland Center
01:52PM 42.0969 -82.0917 106° East 468 539 26,100 1,980 Climbing Cleveland Center
01:53PM 42.0619 -81.9197 105° East 469 540 28,000 1,740 Climbing Cleveland Center
01:54PM 42.0264 -81.7489 106° East 468 539 29,700 1,260 Climbing Cleveland Center
01:55PM 41.9914 -81.5792 105° East 468 539 30,600 1,020 Climbing Cleveland Center
01:56PM 41.9517 -81.3758 105° East 476 548 31,900 1,140 Climbing Cleveland Center
01:57PM 41.9142 -81.2058 106° East 471 542 33,000 480 Climbing Cleveland Center
01:58PM 41.8764 -81.0317 106° East 478 550 33,000  Level Cleveland Center
01:59PM 41.8389 -80.8575 106° East 481 554 33,000  Level Cleveland Center
02:00PM 41.8014 -80.6833 106° East 481 554 33,000  Level Cleveland Center
02:01PM 41.7647 -80.5100 106° East 478 550 33,000  Level Cleveland Center
02:02PM 41.7264 -80.3358 106° East 481 554 33,000  Level Cleveland Center
02:03PM 41.6878 -80.1625 107° East 482 555 33,000  Level Cleveland Center
02:04PM 41.6425 -79.9686 107° East 482 555 33,000  Level Cleveland Center
02:05PM 41.6053 -79.7983 106° East 479 551 33,000  Level Cleveland Center
02:06PM 41.5664 -79.6278 107° East 482 555 33,000  Level Cleveland Center
02:07PM 41.5269 -79.4572 107° East 483 556 33,000  Level Cleveland Center
02:08PM 41.4875 -79.2867 107° East 482 555 33,000  Level Cleveland Center
02:09PM 41.4478 -79.1164 107° East 484 557 33,000  Level Cleveland Center
02:10PM 41.3992 -78.9119 108° East 483 556 33,000  Level Cleveland Center
02:11PM 41.3597 -78.7433 107° East 479 551 33,000  Level Cleveland Center
02:12PM 41.3178 -78.5753 108° East 477 549 33,000  Level Cleveland Center
02:13PM 41.2781 -78.4064 107° East 474 545 33,000  Level Cleveland Center
02:14PM 41.2497 -78.2942 109° East 479 551 33,000  Level New York Center
02:15PM 41.2122 -78.1272 107° East 479 551 33,000  Level New York Center
02:16PM 41.1897 -77.9483 99° East 479 551 33,000  Level New York Center
02:17PM 41.1672 -77.7694 99° East 484 557 33,000  Level New York Center
02:18PM 41.1442 -77.5933 100° East 484 557 33,000 -600 Level New York Center
02:19PM 41.1228 -77.4175 99° East 484 557 31,900 -1,440 Descending New York Center
02:20PM 41.1006 -77.2556 100° East 489 563 30,200 -1,860 Descending New York Center
02:21PM 41.0786 -77.0800 99° East 489 563 28,200 -1,980 Descending New York Center
02:22PM 41.0528 -76.8989 101° East 489 563 26,300 -1,980 Descending New York Center
02:23PM 41.0289 -76.7150 100° East 489 563 24,300 -2,280 Descending New York Center
02:24PM 40.9956 -76.5472 105° East 484 557 21,800 -2,400 Descending New York Center
02:25PM 40.9572 -76.3900 108° East 464 534 19,500 -2,040 Descending New York Center
02:26PM 40.9186 -76.2331 108° East 429 494 17,800 -1,380 Descending New York Center
02:27PM 40.8814 -76.0900 109° East 412 474 16,800 -1,320 Descending New York Center
02:28PM 40.8481 -75.9475 107° East 412 474 15,200 -1,440 Descending New York Center
02:29PM 40.8147 -75.8025 107° East 412 474 14,000 -1,140 Descending New York Center
02:30PM 40.7808 -75.6683 108° East 406 467 13,000 -540 Descending New York Center
02:31PM 40.7467 -75.5344 109° East 393 452 13,000 -240 Level New York Center
02:32PM 40.7164 -75.4092 108° East 393 452 12,600 -900 Descending New York Center
02:33PM 40.6922 -75.2761 103° East 383 441 11,300 -1,200 Descending New York Center
02:34PM 40.6561 -75.1342 108° East 378 435 10,200 -660 Descending New York Center
02:35PM 40.5906 -75.0397 132° Southeast 360 414 10,000 -120 Descending New York Center
02:36PM 40.5486 -74.9361 118° Southeast 360 414 10,000  Level New York Center
02:37PM 40.5053 -74.7997 113° Southeast 360 414 10,000  Level New York Center
02:38PM 40.4714 -74.6914 112° Southeast 360 414 10,000  Level New York Center
02:39PM 40.4333 -74.5333 108° East 357 411 10,000 -60 Level New York TRACON
02:40PM 40.4667 -74.4167 69° East 347 399 9,900 -540 Descending New York TRACON
02:41PM 40.4833 -74.3167 78° East 313 360 9,000 -1,200 Descending New York TRACON
02:42PM 40.5167 -74.2000 69° East 299 344 7,700 -1,620 Descending New York TRACON
02:43PM 40.5500 -74.1000 66° East 302 348 5,800 -1,740 Descending New York TRACON
02:44PM 40.6000 -74.0500 37° Northeast 292 336 4,300 -900 Descending New York TRACON
02:45PM 40.6833 -74.0500 360° North 279 321 4,000 -180 Descending New York TRACON
02:46PM 40.7500 -74.0167 21° North 282 325 4,000  Level New York TRACON
02:47PM 40.8167 -73.9667 30° Northeast 282 325 4,000 -420 Level New York TRACON
02:48PM 40.8833 -73.9000 37° Northeast 277 319 3,200 -540 Descending New York TRACON
02:49PM 40.9333 -73.8500 37° Northeast 220 253 3,000 -120 Descending New York TRACON
02:50PM 40.9667 -73.8000 49° Northeast 214 246 3,000 -300 Level New York TRACON
02:51PM 40.9333 -73.7667 143° Southeast 167 192 2,400 -720 Descending New York TRACON
02:52PM 40.8833 -73.7833 194° South 164 189 1,600 -420 Descending New York TRACON
02:53PM 40.8500 -73.8167 217° Southwest 163 188 1,600 -360 Level New York TRACON
02:54PM 40.8167 -73.8333 201° Southwest 134 154 1,000 -540 Descending New York TRACON
02:55PM 40.8000 -73.8833 246° West 140 161 600 -420 Descending New York TRACON